Time;durP1;ratioP1;P1;durP2;ratioP2;P2;SDS_P1;SDS_P2;PMS_P1;PMS_P2;Temp;Humidity;BMP_temperature;BMP_pressure;BME280_temperature;BME280_humidity;BME280_pressure;Samples;Min_cycle;Max_cycle;Signal;HPM_P1;HPM_P2
2021/07/15 00:01:36;;;;;;;5.32;4.78;;;20.50;99.90;;;;;;5092714;28;20209;-46
2021/07/15 00:04:02;;;;;;;5.10;4.68;;;20.50;99.90;;;;;;5105389;28;20562;-43
2021/07/15 00:06:29;;;;;;;6.50;4.50;;;20.50;99.90;;;;;;5104857;28;20888;-44
2021/07/15 00:08:58;;;;;;;4.53;4.13;;;20.50;99.90;;;;;;5106104;28;20190;-47
2021/07/15 00:11:27;;;;;;;6.07;4.63;;;20.50;99.90;;;;;;5103491;28;20978;-46
2021/07/15 00:13:56;;;;;;;4.97;4.50;;;20.50;99.90;;;;;;5106370;28;20217;-44
2021/07/15 00:16:25;;;;;;;4.77;4.37;;;20.50;99.90;;;;;;5088747;28;21045;-50
2021/07/15 00:18:53;;;;;;;4.33;4.03;;;20.50;99.90;;;;;;5105201;28;20573;-46
2021/07/15 00:21:22;;;;;;;7.23;4.13;;;20.50;99.90;;;;;;5102192;28;20320;-48
2021/07/15 00:23:49;;;;;;;5.10;4.10;;;20.60;99.90;;;;;;5105889;28;20304;-50
2021/07/15 00:26:18;;;;;;;4.70;4.40;;;20.60;99.90;;;;;;5102198;28;20200;-47
2021/07/15 00:28:45;;;;;;;6.90;4.50;;;20.60;99.90;;;;;;5105835;28;20205;-46
2021/07/15 00:31:12;;;;;;;4.23;3.90;;;20.50;99.90;;;;;;5101002;28;20198;-44
2021/07/15 00:33:38;;;;;;;5.30;4.33;;;20.50;99.90;;;;;;5089848;28;20228;-45
2021/07/15 00:36:05;;;;;;;4.30;3.90;;;20.50;99.90;;;;;;5101203;28;20220;-43
2021/07/15 00:38:33;;;;;;;4.10;3.63;;;20.60;99.90;;;;;;5102615;28;20193;-43
2021/07/15 00:41:00;;;;;;;6.10;3.73;;;20.60;99.90;;;;;;5102886;28;20219;-44
2021/07/15 00:43:28;;;;;;;4.37;3.43;;;20.60;99.90;;;;;;5099360;28;20205;-45
2021/07/15 00:45:54;;;;;;;3.97;3.67;;;20.50;99.90;;;;;;5102776;28;20193;-43
2021/07/15 00:48:22;;;;;;;3.70;3.20;;;20.50;99.90;;;;;;5089640;28;20631;-44
2021/07/15 00:50:49;;;;;;;3.50;3.20;;;20.50;99.90;;;;;;5108343;28;20653;-44
2021/07/15 00:53:17;;;;;;;4.90;3.27;;;20.50;99.90;;;;;;5095019;27;20209;-44
2021/07/15 00:55:45;;;;;;;4.50;3.20;;;20.40;99.90;;;;;;5107485;28;20213;-45
2021/07/15 00:58:13;;;;;;;5.90;3.53;;;20.40;99.90;;;;;;5104600;28;20201;-45
2021/07/15 01:00:43;;;;;;;3.53;3.23;;;;;;;;;;5101399;28;20201;-44
2021/07/15 01:03:10;;;;;;;6.40;3.70;;;20.30;99.90;;;;;;5105287;28;20812;-43
2021/07/15 01:05:39;;;;;;;4.23;3.40;;;20.30;99.90;;;;;;5094748;28;20208;-45
2021/07/15 01:08:07;;;;;;;4.43;3.27;;;20.30;99.90;;;;;;5102650;28;20197;-49
2021/07/15 01:10:36;;;;;;;4.40;4.00;;;20.20;99.90;;;;;;5108978;28;20200;-44
2021/07/15 01:13:12;;;;;;;6.33;4.13;;;20.20;99.90;;;;;;5105180;28;20686;-47
2021/07/15 01:15:49;;;;;;;5.30;4.80;;;20.20;99.90;;;;;;5107452;28;20601;-46
2021/07/15 01:18:26;;;;;;;6.00;4.27;;;20.20;99.90;;;;;;5098198;28;20197;-47
2021/07/15 01:21:13;;;;;;;5.40;3.97;;;20.10;99.90;;;;;;5091503;28;20200;-43
2021/07/15 01:24:12;;;;;;;5.80;3.83;;;20.10;99.90;;;;;;5107524;28;20713;-45
2021/07/15 01:26:55;;;;;;;6.53;5.03;;;20.10;99.90;;;;;;5107738;28;20189;-45
2021/07/15 01:29:32;;;;;;;9.47;5.67;;;20.10;99.90;;;;;;5105653;28;20177;-44
2021/07/15 01:32:04;;;;;;;5.73;5.23;;;20.10;99.90;;;;;;5104949;28;20193;-44
2021/07/15 01:34:33;;;;;;;5.43;4.70;;;20.10;99.90;;;;;;5106917;27;20209;-46
2021/07/15 01:37:01;;;;;;;6.87;4.70;;;20.10;99.90;;;;;;5087693;28;20213;-46
2021/07/15 01:39:31;;;;;;;6.70;5.03;;;20.10;99.90;;;;;;5106348;28;20205;-44
2021/07/15 01:42:04;;;;;;;7.37;6.27;;;20.10;99.90;;;;;;5105016;28;20675;-43
2021/07/15 01:44:33;;;;;;;9.93;6.00;;;20.00;99.90;;;;;;5093025;28;20221;-49
2021/07/15 01:47:01;;;;;;;10.53;5.97;;;20.00;99.90;;;;;;5084124;28;20547;-44
2021/07/15 01:49:29;;;;;;;7.90;5.97;;;20.00;99.90;;;;;;5086055;28;20209;-49
2021/07/15 01:51:56;;;;;;;8.87;6.17;;;20.00;99.90;;;;;;5081426;28;20202;-46
2021/07/15 01:54:24;;;;;;;9.93;6.33;;;20.00;99.90;;;;;;5104711;28;20205;-46
2021/07/15 01:56:51;;;;;;;9.70;5.87;;;20.00;99.90;;;;;;5106068;28;20193;-47
2021/07/15 01:59:22;;;;;;;9.87;6.73;;;20.00;99.90;;;;;;5104491;28;20177;-46
2021/07/15 02:01:52;;;;;;;7.70;6.17;;;20.00;99.90;;;;;;5106037;28;20216;-44
2021/07/15 02:04:20;;;;;;;8.57;5.90;;;20.00;99.90;;;;;;5105106;28;20207;-44
2021/07/15 02:06:49;;;;;;;6.43;5.57;;;20.00;99.90;;;;;;5104704;28;20705;-45
2021/07/15 02:09:17;;;;;;;6.57;5.50;;;20.00;99.90;;;;;;5093346;28;20210;-47
2021/07/15 02:11:46;;;;;;;7.87;5.87;;;20.00;99.90;;;;;;5107095;28;20209;-44
2021/07/15 02:14:15;;;;;;;6.23;5.10;;;20.00;99.90;;;;;;5103295;28;20227;-44
2021/07/15 02:16:44;;;;;;;7.07;5.23;;;20.00;99.90;;;;;;5106320;28;20213;-47
2021/07/15 02:19:12;;;;;;;5.77;5.13;;;20.00;99.90;;;;;;5096119;28;20181;-44
2021/07/15 02:21:40;;;;;;;4.67;4.27;;;20.00;99.90;;;;;;5106498;28;20620;-46
2021/07/15 02:24:14;;;;;;;4.40;4.00;;;20.00;99.90;;;;;;5088250;28;20208;-45
2021/07/15 02:26:43;;;;;;;3.80;3.20;;;19.90;99.90;;;;;;5106614;28;20530;-45
2021/07/15 02:29:11;;;;;;;3.63;3.00;;;19.90;99.90;;;;;;5099726;28;20192;-45
2021/07/15 02:31:44;;;;;;;3.33;2.80;;;19.90;99.90;;;;;;5106622;28;20196;-46
2021/07/15 02:34:15;;;;;;;3.83;2.73;;;19.90;99.90;;;;;;5101450;28;20444;-46
2021/07/15 02:36:44;;;;;;;4.27;2.20;;;19.90;99.90;;;;;;5105723;28;20217;-46
2021/07/15 02:39:12;;;;;;;3.07;2.50;;;19.90;99.90;;;;;;5087676;28;20379;-45
2021/07/15 02:41:39;;;;;;;2.10;1.90;;;19.90;99.90;;;;;;5105628;28;20201;-44
2021/07/15 02:44:06;;;;;;;4.17;2.33;;;19.90;99.90;;;;;;5095012;28;20216;-44
2021/07/15 02:46:33;;;;;;;3.37;1.90;;;19.90;99.90;;;;;;5105471;28;20200;-44
2021/07/15 02:49:00;;;;;;;2.23;2.07;;;19.90;99.90;;;;;;5102303;28;20221;-44
2021/07/15 02:51:27;;;;;;;2.63;1.67;;;19.90;99.90;;;;;;5105098;28;20238;-45
2021/07/15 02:53:55;;;;;;;1.70;1.40;;;19.90;99.90;;;;;;5096210;28;20220;-43
2021/07/15 02:56:24;;;;;;;2.07;1.67;;;19.90;99.90;;;;;;5098202;28;20243;-44
2021/07/15 02:59:01;;;;;;;2.47;1.53;;;19.90;99.90;;;;;;5098592;28;20185;-46
2021/07/15 03:01:33;;;;;;;2.17;1.60;;;19.80;99.90;;;;;;5105188;28;20200;-45
2021/07/15 03:04:07;;;;;;;1.50;1.40;;;19.80;99.90;;;;;;5102369;28;20225;-47
2021/07/15 03:06:36;;;;;;;1.73;1.50;;;19.80;99.90;;;;;;5105376;28;20195;-44
2021/07/15 03:09:11;;;;;;;2.63;1.57;;;19.80;99.90;;;;;;5082229;28;20185;-45
2021/07/15 03:11:41;;;;;;;1.47;1.37;;;19.80;99.90;;;;;;5103178;28;20598;-47
2021/07/15 03:14:09;;;;;;;2.60;1.43;;;19.80;99.90;;;;;;5102372;28;20209;-48
2021/07/15 03:16:39;;;;;;;1.57;1.47;;;19.90;99.90;;;;;;5106538;28;20209;-46
2021/07/15 03:19:07;;;;;;;1.57;1.30;;;19.90;99.90;;;;;;5101757;28;20189;-44
2021/07/15 03:21:38;;;;;;;1.70;1.60;;;19.90;99.90;;;;;;5106243;28;20539;-45
2021/07/15 03:24:09;;;;;;;2.73;1.57;;;19.80;99.90;;;;;;5102386;28;20985;-45
2021/07/15 03:26:37;;;;;;;2.20;1.70;;;19.80;99.90;;;;;;5091535;28;20208;-47
2021/07/15 03:29:06;;;;;;;1.63;1.53;;;19.80;99.90;;;;;;5101860;28;20208;-45
2021/07/15 03:31:34;;;;;;;2.03;1.53;;;19.80;99.90;;;;;;5105834;28;20190;-44
2021/07/15 03:34:00;;;;;;;3.23;1.60;;;19.80;99.90;;;;;;5103003;28;20216;-45
2021/07/15 03:36:27;;;;;;;1.80;1.70;;;19.80;99.90;;;;;;5105849;28;20209;-47
2021/07/15 03:38:55;;;;;;;2.17;2.07;;;19.80;99.90;;;;;;5097856;28;20204;-46
2021/07/15 03:41:24;;;;;;;3.20;3.00;;;19.70;99.90;;;;;;5089249;28;20821;-47
2021/07/15 03:43:51;;;;;;;3.47;1.90;;;19.70;99.90;;;;;;5104768;28;20213;-49
2021/07/15 03:46:20;;;;;;;2.33;1.63;;;19.70;99.90;;;;;;5103385;28;20875;-45
2021/07/15 03:48:47;;;;;;;3.40;3.10;;;19.80;99.90;;;;;;5105431;28;20256;-47
2021/07/15 03:51:15;;;;;;;2.47;2.00;;;19.70;99.90;;;;;;5102887;28;20181;-48
2021/07/15 03:53:47;;;;;;;5.37;1.77;;;19.80;99.90;;;;;;5105787;28;20296;-46
2021/07/15 03:56:16;;;;;;;1.57;1.47;;;19.80;99.90;;;;;;5086834;28;20714;-47
2021/07/15 03:58:46;;;;;;;2.60;1.70;;;19.70;99.90;;;;;;5098031;28;20205;-46
2021/07/15 04:01:15;;;;;;;2.63;1.87;;;19.80;99.90;;;;;;5101670;28;20193;-45
2021/07/15 04:03:44;;;;;;;3.53;1.70;;;19.80;99.90;;;;;;5105498;28;20205;-45
2021/07/15 04:06:12;;;;;;;2.07;1.90;;;19.80;99.90;;;;;;5101250;28;20182;-48
2021/07/15 04:08:42;;;;;;;1.47;1.37;;;19.80;99.90;;;;;;5104356;28;20691;-46
2021/07/15 04:11:09;;;;;;;1.77;1.40;;;19.80;99.90;;;;;;5101417;28;20196;-47
2021/07/15 04:13:40;;;;;;;3.43;2.30;;;19.70;99.90;;;;;;5091189;28;20221;-44
2021/07/15 04:16:21;;;;;;;1.97;1.60;;;19.70;99.90;;;;;;5100740;28;20193;-45
2021/07/15 04:18:52;;;;;;;1.80;1.70;;;19.70;99.90;;;;;;5103858;28;20193;-47
2021/07/15 04:21:19;;;;;;;1.70;1.57;;;19.70;99.90;;;;;;5102805;28;20219;-44
2021/07/15 04:23:47;;;;;;;2.60;1.40;;;19.70;99.90;;;;;;5108652;28;20209;-48
2021/07/15 04:26:15;;;;;;;5.03;2.50;;;19.80;99.90;;;;;;5106466;28;20182;-46
2021/07/15 04:28:42;;;;;;;1.70;1.60;;;19.80;99.90;;;;;;5094721;28;20205;-44
2021/07/15 04:31:28;;;;;;;1.93;1.23;;;19.70;99.90;;;;;;5105015;28;20185;-46
2021/07/15 04:33:57;;;;;;;2.10;1.40;;;19.70;99.90;;;;;;5101356;28;20674;-45
2021/07/15 04:36:25;;;;;;;3.17;1.93;;;19.70;99.90;;;;;;5105770;28;20586;-46
2021/07/15 04:38:52;;;;;;;2.10;2.00;;;19.70;99.90;;;;;;5100610;28;20197;-47
2021/07/15 04:41:19;;;;;;;2.57;1.73;;;19.70;99.90;;;;;;5106468;28;20201;-44
2021/07/15 04:43:48;;;;;;;2.43;1.40;;;19.70;99.90;;;;;;5094806;28;20217;-44
2021/07/15 04:46:18;;;;;;;1.50;1.30;;;19.80;99.90;;;;;;5100892;28;20185;-45
2021/07/15 04:48:46;;;;;;;2.53;1.13;;;19.80;99.90;;;;;;5108619;28;20208;-44
2021/07/15 04:51:16;;;;;;;1.37;1.23;;;19.80;99.90;;;;;;5104524;28;20874;-44
2021/07/15 04:53:43;;;;;;;2.33;1.27;;;19.80;99.90;;;;;;5106971;28;20706;-44
2021/07/15 04:56:11;;;;;;;1.10;1.00;;;19.90;99.90;;;;;;5098146;28;20201;-44
2021/07/15 04:58:38;;;;;;;1.67;1.20;;;19.80;99.90;;;;;;5094547;28;20201;-45
2021/07/15 05:01:05;;;;;;;3.53;1.50;;;19.90;99.90;;;;;;5097182;28;20909;-43
2021/07/15 05:03:33;;;;;;;2.17;1.60;;;19.90;99.90;;;;;;5107929;28;20213;-46
2021/07/15 05:06:03;;;;;;;2.47;2.20;;;19.90;99.90;;;;;;5105252;27;20192;-47
2021/07/15 05:08:31;;;;;;;2.70;1.60;;;19.80;99.90;;;;;;5107883;28;20216;-45
2021/07/15 05:10:58;;;;;;;1.43;1.33;;;19.80;99.90;;;;;;5105127;28;20201;-45
2021/07/15 05:13:25;;;;;;;3.37;1.40;;;19.90;99.90;;;;;;5106310;28;20209;-44
2021/07/15 05:15:53;;;;;;;3.87;1.60;;;19.90;99.90;;;;;;5090853;28;20213;-46
2021/07/15 05:18:20;;;;;;;5.10;1.80;;;19.90;99.90;;;;;;5097764;28;20200;-44
2021/07/15 05:20:48;;;;;;;2.90;1.73;;;20.00;99.90;;;;;;5107258;28;20197;-47
2021/07/15 05:23:16;;;;;;;2.17;1.60;;;20.00;99.90;;;;;;5104892;28;20922;-45
2021/07/15 05:25:43;;;;;;;1.73;1.53;;;20.00;99.90;;;;;;5107703;28;20647;-46
2021/07/15 05:28:09;;;;;;;3.07;1.90;;;20.10;99.90;;;;;;5103377;28;20180;-44
2021/07/15 05:30:36;;;;;;;3.20;1.77;;;20.10;99.90;;;;;;5093255;28;20209;-45
2021/07/15 05:33:03;;;;;;;3.73;2.00;;;20.10;99.90;;;;;;5090107;28;20576;-47
2021/07/15 05:35:29;;;;;;;3.97;2.10;;;20.20;99.90;;;;;;5102510;28;20197;-46
2021/07/15 05:37:58;;;;;;;7.83;2.63;;;20.10;99.90;;;;;;5100449;28;20213;-46
2021/07/15 05:40:26;;;;;;;3.83;2.17;;;20.10;99.90;;;;;;5098168;28;20234;-45
2021/07/15 05:42:53;;;;;;;1.90;1.70;;;20.20;99.90;;;;;;5098696;28;20189;-44
2021/07/15 05:45:19;;;;;;;3.47;1.90;;;20.20;99.90;;;;;;5080813;28;20210;-47
2021/07/15 05:47:46;;;;;;;2.33;2.17;;;20.30;99.90;;;;;;5090939;28;20198;-44
2021/07/15 05:50:13;;;;;;;2.20;2.10;;;20.30;99.90;;;;;;5094801;28;20201;-44
2021/07/15 05:52:39;;;;;;;2.20;2.00;;;20.30;99.90;;;;;;5083991;28;20206;-46
2021/07/15 05:55:06;;;;;;;3.47;2.40;;;20.30;99.90;;;;;;5097572;28;20202;-48
2021/07/15 05:57:35;;;;;;;3.27;2.83;;;20.30;99.90;;;;;;5096679;28;20212;-46
2021/07/15 06:00:02;;;;;;;3.00;2.70;;;20.30;99.90;;;;;;5085844;28;20200;-47
2021/07/15 06:02:31;;;;;;;2.37;2.17;;;20.30;99.90;;;;;;5089092;28;20213;-45
2021/07/15 06:04:57;;;;;;;3.03;2.60;;;20.30;99.90;;;;;;5094687;28;20214;-46
2021/07/15 06:07:24;;;;;;;3.47;3.00;;;20.30;99.90;;;;;;5100526;28;20696;-45
2021/07/15 06:09:51;;;;;;;3.47;2.97;;;20.30;99.90;;;;;;5103532;28;20316;-47
2021/07/15 06:12:17;;;;;;;3.93;2.70;;;20.40;99.90;;;;;;5095484;28;20678;-44
2021/07/15 06:14:45;;;;;;;3.20;2.90;;;20.40;99.90;;;;;;5094580;28;20232;-45
2021/07/15 06:17:12;;;;;;;4.13;2.87;;;20.50;99.90;;;;;;5090505;28;20413;-45
2021/07/15 06:19:39;;;;;;;2.97;2.70;;;20.50;99.90;;;;;;5103165;28;20248;-48
2021/07/15 06:22:05;;;;;;;3.37;3.10;;;20.60;99.90;;;;;;5096974;28;20215;-48
2021/07/15 06:24:32;;;;;;;3.73;2.87;;;20.70;99.90;;;;;;5105057;28;20224;-43
2021/07/15 06:26:59;;;;;;;4.57;4.03;;;20.70;99.90;;;;;;5100242;28;20187;-45
2021/07/15 06:29:26;;;;;;;5.35;4.03;;;20.70;99.90;;;;;;5093023;28;20216;-48
2021/07/15 06:31:54;;;;;;;8.00;3.85;;;20.80;99.90;;;;;;5081185;28;20228;-44
2021/07/15 06:34:20;;;;;;;5.10;4.05;;;20.90;99.90;;;;;;5097434;28;20221;-47
2021/07/15 06:36:48;;;;;;;6.03;4.35;;;21.00;99.90;;;;;;5083152;28;20232;-47
2021/07/15 06:39:15;;;;;;;7.55;3.70;;;21.10;99.90;;;;;;5102726;28;20189;-46
2021/07/15 06:41:42;;;;;;;4.95;3.10;;;21.10;99.90;;;;;;5099407;28;20213;-45
2021/07/15 06:44:11;;;;;;;6.20;3.85;;;21.20;99.90;;;;;;5099205;28;20233;-46
2021/07/15 06:46:38;;;;;;;5.90;4.80;;;21.20;99.90;;;;;;5098834;28;20296;-47
2021/07/15 06:49:06;;;;;;;5.25;4.15;;;21.20;99.90;;;;;;5085034;28;20190;-48
2021/07/15 06:51:33;;;;;;;4.90;3.75;;;21.30;99.90;;;;;;5096354;28;20217;-45
2021/07/15 06:54:00;;;;;;;4.78;3.97;;;21.30;99.90;;;;;;5098877;28;20223;-47
2021/07/15 06:56:27;;;;;;;6.07;3.78;;;21.30;99.90;;;;;;5093773;28;20211;-47
2021/07/15 06:58:55;;;;;;;3.97;3.65;;;21.30;99.90;;;;;;5102928;28;20554;-46
2021/07/15 07:01:21;;;;;;;5.75;4.00;;;21.40;99.90;;;;;;5093050;28;20280;-45
2021/07/15 07:03:48;;;;;;;7.60;4.63;;;21.50;99.90;;;;;;5088436;28;20722;-45
2021/07/15 07:06:16;;;;;;;4.80;3.97;;;21.50;99.90;;;;;;5090086;28;20201;-45
2021/07/15 07:08:42;;;;;;;7.78;5.35;;;21.50;99.90;;;;;;5094323;28;20666;-45
2021/07/15 07:11:09;;;;;;;7.68;5.65;;;21.60;99.90;;;;;;5097172;28;20205;-46
2021/07/15 07:13:36;;;;;;;6.88;4.45;;;21.60;99.90;;;;;;5090570;28;20241;-48
2021/07/15 07:16:02;;;;;;;8.02;6.22;;;21.60;99.90;;;;;;5083501;28;20193;-45
2021/07/15 07:18:29;;;;;;;5.93;5.32;;;21.70;99.90;;;;;;5085929;28;20202;-47
2021/07/15 07:20:56;;;;;;;6.82;5.10;;;21.70;99.90;;;;;;5084360;28;20182;-48
2021/07/15 07:23:24;;;;;;;6.32;5.32;;;21.80;99.90;;;;;;5097006;28;20217;-47
2021/07/15 07:25:50;;;;;;;5.88;5.28;;;21.90;99.90;;;;;;5082602;28;20213;-45
2021/07/15 07:28:17;;;;;;;6.50;5.57;;;21.90;99.90;;;;;;5095370;28;20216;-50
2021/07/15 07:30:44;;;;;;;5.63;4.63;;;21.90;99.90;;;;;;5089431;28;20208;-45
2021/07/15 07:33:11;;;;;;;5.60;4.88;;;21.90;99.90;;;;;;5078226;28;20287;-50
2021/07/15 07:35:38;;;;;;;5.00;4.45;;;22.00;99.90;;;;;;5095788;28;20205;-47
2021/07/15 07:38:05;;;;;;;6.65;6.00;;;22.00;99.90;;;;;;5095192;28;20217;-47
2021/07/15 07:40:33;;;;;;;7.22;5.55;;;22.10;99.90;;;;;;5090577;28;20201;-44
2021/07/15 07:42:59;;;;;;;7.68;6.47;;;22.10;99.90;;;;;;5083457;28;20210;-45
2021/07/15 07:45:26;;;;;;;6.40;5.80;;;22.10;99.90;;;;;;5094511;28;20193;-47
2021/07/15 07:47:53;;;;;;;5.10;4.60;;;22.10;99.90;;;;;;5081735;28;20213;-46
2021/07/15 07:50:20;;;;;;;6.65;5.70;;;22.10;99.90;;;;;;5081422;28;20656;-46
2021/07/15 07:52:47;;;;;;;6.25;5.60;;;22.20;99.90;;;;;;5086814;28;20192;-46
2021/07/15 07:55:13;;;;;;;6.00;5.40;;;22.20;99.90;;;;;;5086469;28;20197;-46
2021/07/15 07:57:41;;;;;;;8.98;6.15;;;22.30;99.90;;;;;;5090124;28;20212;-44
2021/07/15 08:00:11;;;;;;;5.35;4.93;;;22.40;99.90;;;;;;5076962;28;20276;-47
2021/07/15 08:02:42;;;;;;;6.70;5.50;;;22.60;99.90;;;;;;5088711;28;20190;-46
2021/07/15 08:05:10;;;;;;;5.85;5.22;;;22.70;99.90;;;;;;5083837;28;20602;-47
2021/07/15 08:07:38;;;;;;;5.88;4.90;;;22.70;99.90;;;;;;5099782;28;20205;-50
2021/07/15 08:10:07;;;;;;;6.00;5.50;;;22.80;99.90;;;;;;5103646;28;20197;-51
2021/07/15 08:12:33;;;;;;;5.47;4.97;;;22.90;99.90;;;;;;5096069;28;20216;-46
2021/07/15 08:15:02;;;;;;;5.65;5.13;;;23.00;99.90;;;;;;5094418;28;20229;-46
2021/07/15 08:17:28;;;;;;;6.13;5.53;;;23.10;99.90;;;;;;5101312;28;20217;-46
2021/07/15 08:19:55;;;;;;;6.60;5.22;;;23.10;99.90;;;;;;5078199;28;21117;-47
2021/07/15 08:22:21;;;;;;;7.18;5.78;;;23.10;99.90;;;;;;5103111;28;20189;-45
2021/07/15 08:24:48;;;;;;;5.85;5.25;;;23.20;99.90;;;;;;5081624;28;20422;-48
2021/07/15 08:27:15;;;;;;;6.72;5.82;;;23.30;99.90;;;;;;5085518;28;20208;-45
2021/07/15 08:29:41;;;;;;;6.72;6.03;;;23.30;99.90;;;;;;5091908;28;20197;-43
2021/07/15 08:32:09;;;;;;;7.70;5.65;;;23.30;99.90;;;;;;5097726;28;20185;-49
2021/07/15 08:34:36;;;;;;;4.88;4.47;;;23.30;99.90;;;;;;5085433;28;20236;-45
2021/07/15 08:37:03;;;;;;;6.65;5.32;;;23.40;99.90;;;;;;5095142;28;20213;-45
2021/07/15 08:39:30;;;;;;;5.35;4.82;;;23.40;99.90;;;;;;5099910;28;20193;-44
2021/07/15 08:41:58;;;;;;;5.63;5.13;;;23.40;99.90;;;;;;5082741;28;20198;-45
2021/07/15 08:44:25;;;;;;;5.70;5.13;;;23.50;99.90;;;;;;5090818;28;20577;-48
2021/07/15 08:46:52;;;;;;;6.50;5.32;;;23.50;99.90;;;;;;5089359;28;20856;-45
2021/07/15 08:49:21;;;;;;;8.10;5.40;;;23.50;99.90;;;;;;5086282;28;20194;-48
2021/07/15 08:51:48;;;;;;;6.32;5.55;;;23.50;99.90;;;;;;5087771;28;20205;-47
2021/07/15 08:54:17;;;;;;;5.35;4.72;;;23.60;99.90;;;;;;5097376;28;20213;-45
2021/07/15 08:56:44;;;;;;;5.60;4.80;;;23.70;99.90;;;;;;5087173;28;20768;-45
2021/07/15 08:59:14;;;;;;;5.15;4.68;;;23.80;99.90;;;;;;5087669;28;20221;-45
2021/07/15 09:01:43;;;;;;;5.85;4.82;;;23.80;99.90;;;;;;5089775;28;20201;-45
2021/07/15 09:04:10;;;;;;;5.43;4.63;;;23.80;99.90;;;;;;5094669;28;20552;-45
2021/07/15 09:06:40;;;;;;;5.72;4.40;;;23.90;99.90;;;;;;5075311;28;20625;-44
2021/07/15 09:09:08;;;;;;;5.03;4.53;;;23.90;99.90;;;;;;5103527;28;20190;-46
2021/07/15 09:11:34;;;;;;;5.22;4.72;;;23.90;99.90;;;;;;5103137;28;20204;-45
2021/07/15 09:14:01;;;;;;;5.15;4.65;;;23.80;99.90;;;;;;5099105;28;20220;-47
2021/07/15 09:16:28;;;;;;;5.03;4.63;;;23.80;99.90;;;;;;5098041;28;20205;-47
2021/07/15 09:19:00;;;;;;;5.57;5.18;;;23.70;99.90;;;;;;5100521;28;20300;-44
2021/07/15 09:21:30;;;;;;;5.22;4.63;;;23.50;99.90;;;;;;5094460;28;20573;-45
2021/07/15 09:23:58;;;;;;;6.63;4.78;;;23.40;99.90;;;;;;5096749;28;20216;-45
2021/07/15 09:26:25;;;;;;;5.70;4.95;;;23.30;99.90;;;;;;5099998;28;20819;-43
2021/07/15 09:28:51;;;;;;;5.05;4.65;;;23.30;99.90;;;;;;5097225;28;20894;-44
2021/07/15 09:31:23;;;;;;;6.40;5.05;;;23.40;99.90;;;;;;5102375;28;20189;-45
2021/07/15 09:33:50;;;;;;;4.53;4.22;;;23.40;99.90;;;;;;5089119;28;20221;-44
2021/07/15 09:36:21;;;;;;;4.82;4.43;;;23.40;99.90;;;;;;5102088;28;20202;-49
2021/07/15 09:38:48;;;;;;;4.63;4.22;;;23.60;99.90;;;;;;5088149;28;20217;-44
2021/07/15 09:41:18;;;;;;;6.63;4.68;;;23.80;99.90;;;;;;5100220;28;20201;-44
2021/07/15 09:43:45;;;;;;;4.45;4.00;;;23.90;99.90;;;;;;5098348;28;20455;-44
2021/07/15 09:46:18;;;;;;;4.13;3.83;;;24.00;99.90;;;;;;5100246;28;20197;-47
2021/07/15 09:48:46;;;;;;;4.85;4.07;;;24.20;99.90;;;;;;5092301;28;20194;-47
2021/07/15 09:51:16;;;;;;;4.85;4.03;;;24.30;99.90;;;;;;5105582;28;20189;-44
2021/07/15 09:53:43;;;;;;;4.97;4.55;;;24.40;99.90;;;;;;5086461;28;20209;-45
2021/07/15 09:56:11;;;;;;;5.53;4.93;;;24.50;99.90;;;;;;5105230;28;20200;-45
2021/07/15 09:58:41;;;;;;;5.40;5.00;;;24.50;99.90;;;;;;5100484;28;20217;-47
2021/07/15 10:01:09;;;;;;;5.70;4.90;;;24.40;99.90;;;;;;5101443;28;20228;-48
2021/07/15 10:03:38;;;;;;;5.05;4.57;;;24.40;99.90;;;;;;5090002;28;20249;-47
2021/07/15 10:06:05;;;;;;;5.20;4.47;;;24.30;99.90;;;;;;5103876;28;20193;-46
2021/07/15 10:08:34;;;;;;;5.80;5.28;;;24.30;99.90;;;;;;5083094;28;20205;-49
2021/07/15 10:11:15;;;;;;;5.10;4.70;;;24.30;99.90;;;;;;5099622;28;20204;-45
2021/07/15 10:13:45;;;;;;;5.22;4.75;;;24.30;99.90;;;;;;5111945;27;20225;-50
2021/07/15 10:16:12;;;;;;;5.35;4.85;;;24.40;99.90;;;;;;5090820;28;20189;-45
2021/07/15 10:18:40;;;;;;;6.25;4.63;;;24.40;99.90;;;;;;5091142;28;20228;-51
2021/07/15 10:21:09;;;;;;;5.18;4.68;;;24.40;99.90;;;;;;5098093;28;20823;-44
2021/07/15 10:23:37;;;;;;;5.35;4.80;;;24.40;99.90;;;;;;5086496;28;20213;-49
2021/07/15 10:26:05;;;;;;;5.20;4.70;;;24.50;99.90;;;;;;5098868;28;20197;-47
2021/07/15 10:28:32;;;;;;;6.30;4.47;;;24.60;99.90;;;;;;5098942;28;20511;-45
2021/07/15 10:31:02;;;;;;;5.38;4.88;;;24.70;99.90;;;;;;5092184;28;20197;-45
2021/07/15 10:33:30;;;;;;;5.90;5.30;;;24.80;99.90;;;;;;5104173;28;20225;-49
2021/07/15 10:35:59;;;;;;;7.25;6.53;;;24.90;99.90;;;;;;5078746;28;20587;-45
2021/07/15 10:38:27;;;;;;;8.80;5.95;;;25.10;99.90;;;;;;5094192;28;20240;-47
2021/07/15 10:40:56;;;;;;;6.82;6.07;;;25.00;99.90;;;;;;5085187;28;20395;-48
2021/07/15 10:43:23;;;;;;;6.68;5.90;;;24.80;99.90;;;;;;5097962;28;20231;-46
2021/07/15 10:45:49;;;;;;;6.68;6.07;;;24.80;99.90;;;;;;5102776;27;20204;-46
2021/07/15 10:48:17;;;;;;;6.63;5.97;;;24.70;99.90;;;;;;5078515;28;20284;-46
2021/07/15 10:50:44;;;;;;;8.23;5.80;;;24.60;99.90;;;;;;5092843;28;20407;-45
2021/07/15 10:53:13;;;;;;;6.35;5.75;;;24.60;99.90;;;;;;5104012;28;20213;-46
2021/07/15 10:55:41;;;;;;;6.55;5.82;;;24.70;99.90;;;;;;5073205;28;20193;-45
2021/07/15 10:58:08;;;;;;;7.35;6.13;;;24.80;99.90;;;;;;5091309;28;20209;-48
2021/07/15 11:00:35;;;;;;;6.78;6.20;;;24.90;99.90;;;;;;5089193;28;20212;-45
2021/07/15 11:03:09;;;;;;;5.40;5.00;;;25.00;99.90;;;;;;5091799;28;20229;-48
2021/07/15 11:05:46;;;;;;;7.10;6.38;;;25.10;99.90;;;;;;5080502;28;20204;-45
2021/07/15 11:08:13;;;;;;;7.65;5.25;;;25.30;99.90;;;;;;5087668;28;20243;-45
2021/07/15 11:10:40;;;;;;;7.28;6.60;;;25.30;99.90;;;;;;5077701;28;20206;-50
2021/07/15 11:13:09;;;;;;;7.13;6.43;;;25.40;99.90;;;;;;5097921;28;20209;-47
2021/07/15 11:15:47;;;;;;;6.80;5.65;;;25.60;99.90;;;;;;5089799;28;20700;-45
2021/07/15 11:18:47;;;;;;;6.88;6.20;;;25.60;99.90;;;;;;5099619;28;20205;-45
2021/07/15 11:21:32;;;;;;;7.38;6.32;;;25.40;99.90;;;;;;5094490;28;20284;-48
2021/07/15 11:24:32;;;;;;;8.38;6.40;;;25.30;99.90;;;;;;5100271;28;20720;-45
2021/07/15 11:26:59;;;;;;;6.55;6.05;;;25.30;99.90;;;;;;5088758;28;20220;-49
2021/07/15 11:29:50;;;;;;;7.78;7.00;;;25.20;99.90;;;;;;5094879;28;20197;-45
2021/07/15 11:32:25;;;;;;;6.88;6.28;;;25.20;99.90;;;;;;5093100;28;20205;-45
2021/07/15 11:34:54;;;;;;;7.43;6.72;;;25.10;99.90;;;;;;5098948;28;20282;-46
2021/07/15 11:37:39;;;;;;;7.25;6.55;;;25.20;99.90;;;;;;5094228;28;20762;-50
2021/07/15 11:40:22;;;;;;;6.45;5.80;;;25.40;99.90;;;;;;5099411;28;20223;-47
2021/07/15 11:42:49;;;;;;;7.35;6.65;;;25.40;99.90;;;;;;5095973;28;20338;-47
2021/07/15 11:45:15;;;;;;;7.07;6.40;;;25.60;99.90;;;;;;5100491;28;20846;-47
2021/07/15 11:47:46;;;;;;;7.80;6.78;;;25.60;99.90;;;;;;5096779;28;20196;-47
2021/07/15 11:50:33;;;;;;;9.32;7.50;;;25.80;99.90;;;;;;5093603;28;20264;-47
2021/07/15 11:53:19;;;;;;;7.70;6.15;;;25.70;99.90;;;;;;5096643;28;20320;-45
2021/07/15 11:55:47;;;;;;;6.82;5.85;;;25.80;99.90;;;;;;5103811;28;20696;-46
2021/07/15 11:58:42;;;;;;;8.05;6.05;;;26.00;99.90;;;;;;5086479;28;20682;-46
2021/07/15 12:01:17;;;;;;;7.80;6.18;;;26.20;99.90;;;;;;5091597;28;20818;-45
2021/07/15 12:03:59;;;;;;;6.22;5.55;;;26.50;99.90;;;;;;5092584;28;20815;-47
2021/07/15 12:06:26;;;;;;;10.75;9.75;;;26.40;99.90;;;;;;5090212;28;20218;-48
2021/07/15 12:08:59;;;;;;;8.30;6.00;;;26.30;99.90;;;;;;5096384;28;20202;-45
2021/07/15 12:11:26;;;;;;;7.03;5.60;;;26.20;99.90;;;;;;5097504;28;20189;-46
2021/07/15 12:13:53;;;;;;;6.72;6.13;;;26.10;99.90;;;;;;5089243;28;20232;-47
2021/07/15 12:16:20;;;;;;;7.07;6.38;;;26.00;99.90;;;;;;5094643;28;20201;-45
2021/07/15 12:18:48;;;;;;;7.40;6.57;;;25.90;99.90;;;;;;5093089;28;20278;-47
2021/07/15 12:21:19;;;;;;;6.43;5.85;;;25.90;99.90;;;;;;5089936;28;20202;-47
2021/07/15 12:23:47;;;;;;;6.53;5.97;;;26.10;99.90;;;;;;5097732;28;20709;-48
2021/07/15 12:26:17;;;;;;;6.63;5.95;;;26.10;99.90;;;;;;5097094;28;20205;-45
2021/07/15 12:28:46;;;;;;;6.68;6.05;;;26.20;99.90;;;;;;5087932;28;20215;-45
2021/07/15 12:31:14;;;;;;;7.18;5.93;;;26.20;99.90;;;;;;5098468;28;20286;-45
2021/07/15 12:33:44;;;;;;;6.75;6.15;;;26.30;99.90;;;;;;5094562;28;20613;-47
2021/07/15 12:36:15;;;;;;;6.68;6.07;;;26.40;99.90;;;;;;5085704;28;20215;-46
2021/07/15 12:38:46;;;;;;;6.57;5.05;;;26.70;99.90;;;;;;5097985;28;20238;-46
2021/07/15 12:41:17;;;;;;;5.97;5.53;;;27.00;99.90;;;;;;5092143;28;20201;-46
2021/07/15 12:43:47;;;;;;;7.53;5.50;;;27.00;99.90;;;;;;5087373;28;20225;-48
2021/07/15 12:46:16;;;;;;;6.50;5.85;;;27.10;99.90;;;;;;5101030;28;20200;-46
2021/07/15 12:48:44;;;;;;;8.32;5.57;;;27.00;99.90;;;;;;5099490;28;20789;-45
2021/07/15 12:51:12;;;;;;;6.85;5.72;;;26.90;99.90;;;;;;5107300;28;20590;-47
2021/07/15 12:53:42;;;;;;;6.93;5.45;;;26.90;99.90;;;;;;5100929;28;20316;-48
2021/07/15 12:56:11;;;;;;;5.50;4.90;;;27.10;99.90;;;;;;5099303;28;20303;-46
2021/07/15 12:58:41;;;;;;;5.32;4.82;;;27.20;99.90;;;;;;5104825;28;20221;-45